Time;durP1;ratioP1;P1;durP2;ratioP2;P2;SDS_P1;SDS_P2;PMS_P1;PMS_P2;Temp;Humidity;BMP_temperature;BMP_pressure;BME280_temperature;BME280_humidity;BME280_pressure;Samples;Min_cycle;Max_cycle;Signal;HPM_P1;HPM_P2
2022/11/02 00:00:28;;;;;;;14.88;2.63;;;12.80;99.90;;;;;;4883652;29;20052;-96
2022/11/02 00:02:54;;;;;;;13.48;2.00;;;13.20;99.90;;;;;;4884568;29;20053;-96
2022/11/02 00:05:23;;;;;;;11.07;1.75;;;12.70;99.90;;;;;;4869939;29;20451;-96
2022/11/02 00:07:51;;;;;;;9.43;1.75;;;12.70;99.90;;;;;;4870539;29;20164;-96
2022/11/02 00:10:17;;;;;;;12.07;1.70;;;12.60;99.90;;;;;;4886390;29;20481;-96
2022/11/02 00:12:43;;;;;;;11.30;1.50;;;12.50;99.90;;;;;;4868491;29;20493;-96
2022/11/02 00:15:10;;;;;;;11.70;2.17;;;12.50;99.90;;;;;;4899957;29;20077;-96
2022/11/02 00:17:36;;;;;;;10.65;1.25;;;12.50;99.90;;;;;;4883406;29;20140;-96
2022/11/02 00:20:04;;;;;;;8.40;1.42;;;12.50;99.90;;;;;;4898712;29;20052;-96
2022/11/02 00:22:32;;;;;;;11.65;1.50;;;12.50;99.90;;;;;;4883314;29;20059;-96
2022/11/02 00:25:02;;;;;;;11.57;1.98;;;12.40;99.90;;;;;;4868494;29;20048;-96
2022/11/02 00:27:29;;;;;;;8.77;1.27;;;12.20;99.90;;;;;;4867697;29;20067;-96
2022/11/02 00:29:56;;;;;;;9.35;1.50;;;12.30;99.90;;;;;;4888057;29;20537;-96
2022/11/02 00:32:36;;;;;;;12.05;1.85;;;12.20;99.90;;;;;;4877686;29;20072;-96
2022/11/02 00:37:48;;;;;;;10.77;1.48;;;12.00;99.90;;;;;;5749909;23;20068;-96
2022/11/02 05:01:51;;;;;;;10.20;1.33;;;10.60;99.90;;;;;;5183920;23;20354;-96
2022/11/02 05:08:38;;;;;;;9.27;1.20;;;10.50;99.90;;;;;;4862772;29;20060;-96
2022/11/02 05:11:14;;;;;;;10.10;1.58;;;10.50;99.90;;;;;;4886184;29;20200;-95
2022/11/02 05:14:18;;;;;;;10.57;1.55;;;10.40;99.90;;;;;;4905516;29;20087;-96
2022/11/02 05:17:12;;;;;;;13.20;1.98;;;10.30;99.90;;;;;;4878347;29;20071;-96
2022/11/02 05:20:37;;;;;;;10.55;1.55;;;10.40;99.90;;;;;;4895426;29;20048;-96
2022/11/02 05:24:40;;;;;;;12.13;1.80;;;10.50;99.90;;;;;;4871027;29;20110;-96
2022/11/02 05:27:16;;;;;;;7.80;1.50;;;10.50;99.90;;;;;;4892343;29;20058;-96
2022/11/02 05:46:56;;;;;;;11.40;2.15;;;10.40;99.90;;;;;;5330429;23;20067;-96
2022/11/02 05:50:13;;;;;;;;;;;;;;;;;;;;;
2022/11/02 06:00:37;;;;;;;16.95;2.85;;;10.30;99.90;;;;;;4816594;29;20063;-96
2022/11/02 06:04:37;;;;;;;12.57;1.80;;;10.30;99.90;;;;;;4777002;30;20059;-96
2022/11/02 06:07:44;;;;;;;12.80;2.22;;;10.40;99.90;;;;;;4778895;29;20086;-96
2022/11/02 06:10:45;;;;;;;13.80;2.40;;;10.30;99.90;;;;;;4835282;29;20113;-96
2022/11/02 06:14:08;;;;;;;14.18;2.35;;;10.30;99.90;;;;;;4807931;29;20123;-96
2022/11/02 06:17:28;;;;;;;13.65;2.78;;;10.40;99.90;;;;;;4822958;29;20045;-96
2022/11/02 06:20:29;;;;;;;14.20;2.55;;;10.40;99.90;;;;;;4793594;29;20063;-96
2022/11/02 06:26:54;;;;;;;15.40;2.22;;;10.40;99.90;;;;;;4778419;29;20082;-96
2022/11/02 06:30:26;;;;;;;;;;;;;;;;;;;;;
2022/11/02 06:33:50;;;;;;;17.92;3.55;;;10.10;99.90;;;;;;4803908;30;20544;-96
2022/11/02 06:37:29;;;;;;;;;;;;;;;;;;;;;
2022/11/02 11:05:13;;;;;;;14.02;2.03;;;12.60;99.90;;;;;;4856124;29;20473;-90
2022/11/02 11:07:45;;;;;;;13.38;2.30;;;13.00;99.90;;;;;;4858479;29;20056;-91
2022/11/02 11:10:30;;;;;;;;;;;;;;;;;;;;;
2022/11/02 11:17:49;;;;;;;11.30;1.80;;;13.30;99.90;;;;;;4859795;29;20514;-90
2022/11/02 11:54:55;;;;;;;10.10;1.30;;;14.00;99.90;;;;;;5048765;23;20056;-90
2022/11/02 12:00:29;;;;;;;11.48;1.42;;;13.80;99.90;;;;;;4795012;29;20064;-89
2022/11/02 12:03:09;;;;;;;11.63;1.25;;;13.60;99.90;;;;;;4841715;29;20045;-91
2022/11/02 12:06:03;;;;;;;9.10;1.50;;;13.50;99.90;;;;;;4861016;29;20501;-88
2022/11/02 12:09:00;;;;;;;11.55;1.30;;;13.40;99.90;;;;;;4842954;29;20060;-89
2022/11/02 12:12:01;;;;;;;9.88;1.30;;;13.40;99.90;;;;;;4857041;29;20053;-89
2022/11/02 12:14:49;;;;;;;;;;;13.30;99.90;;;;;;4843002;29;20057;-87
2022/11/02 12:17:53;;;;;;;7.72;1.08;;;13.30;99.90;;;;;;4857743;29;20423;-89
2022/11/02 12:20:44;;;;;;;13.68;1.63;;;13.30;99.90;;;;;;4836660;29;20081;-88
2022/11/02 12:23:44;;;;;;;12.88;1.85;;;13.30;99.90;;;;;;4841983;29;20049;-88
2022/11/02 12:26:46;;;;;;;13.85;1.58;;;13.30;99.90;;;;;;4844077;29;20052;-89
2022/11/02 12:29:31;;;;;;;12.77;1.40;;;13.40;99.90;;;;;;4845032;29;20109;-87
2022/11/02 12:32:14;;;;;;;13.50;1.67;;;13.40;99.90;;;;;;4860035;29;20048;-90
2022/11/02 12:34:42;;;;;;;9.05;1.60;;;13.40;99.90;;;;;;4828109;29;20144;-88
2022/11/02 12:37:21;;;;;;;13.23;1.35;;;13.40;99.90;;;;;;4843693;29;20052;-88
2022/11/02 12:40:19;;;;;;;15.82;1.90;;;13.30;99.90;;;;;;4843793;29;20045;-88
2022/11/02 12:43:26;;;;;;;9.93;1.50;;;13.30;99.90;;;;;;4844327;29;20125;-87
2022/11/02 12:46:02;;;;;;;12.80;1.80;;;13.50;99.90;;;;;;4859848;29;20064;-87
2022/11/02 12:52:04;;;;;;;18.02;1.90;;;13.70;99.90;;;;;;4894812;29;20052;-88
2022/11/02 12:54:57;;;;;;;15.75;1.75;;;13.70;99.90;;;;;;4928480;23;20135;-87
2022/11/02 12:57:32;;;;;;;12.05;1.60;;;13.70;99.90;;;;;;4884381;29;20088;-86
2022/11/02 13:00:03;;;;;;;14.43;1.98;;;13.70;99.90;;;;;;4874122;29;20048;-85
2022/11/02 13:02:35;;;;;;;10.63;1.58;;;13.70;99.90;;;;;;4908595;29;20048;-86
2022/11/02 13:05:08;;;;;;;12.02;1.58;;;13.70;99.90;;;;;;4892835;29;20047;-86
2022/11/02 13:07:58;;;;;;;16.33;2.30;;;13.80;99.90;;;;;;4877909;29;20461;-86
2022/11/02 13:10:52;;;;;;;15.52;1.73;;;13.80;99.90;;;;;;4877302;29;20622;-85
2022/11/02 13:13:27;;;;;;;13.68;1.67;;;13.80;99.90;;;;;;4877396;29;20044;-84
2022/11/02 13:15:54;;;;;;;17.60;2.17;;;13.70;99.90;;;;;;4890643;29;20048;-86
2022/11/02 13:18:28;;;;;;;11.13;1.73;;;13.70;99.90;;;;;;4891183;29;20049;-85
2022/11/02 13:21:22;;;;;;;;;;;;;;;;;;;;;
2022/11/02 13:23:58;;;;;;;13.23;1.40;;;13.60;99.90;;;;;;4924349;29;20136;-86
2022/11/02 13:29:53;;;;;;;12.90;2.03;;;13.70;99.90;;;;;;4892375;29;20532;-86
2022/11/02 13:32:44;;;;;;;13.20;1.77;;;13.60;99.90;;;;;;4876676;29;20466;-86
2022/11/02 13:35:39;;;;;;;13.68;1.45;;;13.60;99.90;;;;;;4876644;29;20521;-85
2022/11/02 13:38:11;;;;;;;12.15;1.63;;;13.40;99.90;;;;;;4877419;29;20049;-89
2022/11/02 13:40:44;;;;;;;13.07;1.95;;;13.30;99.90;;;;;;4908899;29;20059;-86
2022/11/02 13:43:51;;;;;;;18.83;1.73;;;13.10;99.90;;;;;;4875274;29;20044;-87
2022/11/02 13:46:59;;;;;;;13.52;1.95;;;13.30;99.90;;;;;;4878275;29;20140;-85
2022/11/02 13:49:37;;;;;;;15.27;1.85;;;13.40;99.90;;;;;;4894451;29;20222;-85
2022/11/02 13:52:12;;;;;;;8.75;1.50;;;13.20;99.90;;;;;;4896472;29;20051;-85
2022/11/02 13:54:43;;;;;;;16.58;1.65;;;13.70;99.90;;;;;;4879529;29;20066;-86
2022/11/02 13:57:38;;;;;;;12.07;1.67;;;13.70;99.90;;;;;;4877614;29;20052;-86
2022/11/02 14:00:45;;;;;;;11.35;1.80;;;13.70;99.90;;;;;;4862962;29;20052;-87
2022/11/02 14:03:40;;;;;;;9.52;1.42;;;13.70;99.90;;;;;;4908838;29;20141;-85
2022/11/02 14:06:13;;;;;;;7.07;1.25;;;13.60;99.90;;;;;;4896719;29;20362;-86
2022/11/02 14:09:12;;;;;;;10.73;1.50;;;13.50;99.90;;;;;;4872506;29;20421;-87
2022/11/02 14:12:16;;;;;;;12.45;1.80;;;13.70;99.90;;;;;;4896817;29;20056;-85
2022/11/02 14:16:10;;;;;;;;;;;;;;;;;;;;;
2022/11/02 14:18:47;;;;;;;;;;;;;;;;;;;;;
2022/11/02 14:22:09;;;;;;;16.83;1.83;;;13.50;99.90;;;;;;4896912;29;20135;-87
2022/11/02 14:24:44;;;;;;;;;;;13.80;99.90;;;;;;4906044;29;20056;-86
2022/11/02 14:27:35;;;;;;;13.60;1.40;;;13.40;99.90;;;;;;4880487;29;19924;-87
2022/11/02 14:30:40;;;;;;;18.42;2.00;;;13.40;99.90;;;;;;4897086;29;20060;-86
2022/11/02 14:33:34;;;;;;;12.52;1.70;;;13.40;99.90;;;;;;4868041;29;20116;-87
2022/11/02 14:36:43;;;;;;;13.93;1.83;;;13.40;99.90;;;;;;4895360;29;20100;-87
2022/11/02 14:40:04;;;;;;;13.48;2.30;;;13.30;99.90;;;;;;4867850;29;20151;-86
2022/11/02 14:43:00;;;;;;;16.88;1.48;;;13.40;99.90;;;;;;4850364;29;20409;-86
2022/11/02 14:45:50;;;;;;;12.27;1.75;;;13.30;99.90;;;;;;4895803;29;20440;-86
2022/11/02 14:48:29;;;;;;;9.35;1.35;;;13.30;99.90;;;;;;4895774;29;20044;-86
2022/11/02 14:51:05;;;;;;;12.88;1.80;;;13.20;99.90;;;;;;4894907;29;20049;-84
2022/11/02 14:53:38;;;;;;;16.33;1.90;;;13.10;99.90;;;;;;4893867;29;20092;-86
2022/11/02 14:56:04;;;;;;;;;;;13.00;99.90;;;;;;4894641;29;20135;-84
2022/11/02 14:58:39;;;;;;;13.57;2.30;;;12.80;99.90;;;;;;4878203;29;19932;-84
2022/11/02 15:01:13;;;;;;;8.60;1.48;;;12.80;99.90;;;;;;4908414;29;20087;-84
2022/11/02 15:03:40;;;;;;;12.15;1.80;;;12.70;99.90;;;;;;4909142;29;20104;-85
2022/11/02 15:06:30;;;;;;;14.77;1.67;;;12.70;99.90;;;;;;4877685;29;20440;-84
2022/11/02 15:09:04;;;;;;;12.55;1.85;;;12.60;99.90;;;;;;4878171;29;20083;-85
2022/11/02 15:11:46;;;;;;;12.57;1.75;;;12.60;99.90;;;;;;4909068;29;20124;-84
2022/11/02 15:14:59;;;;;;;25.13;2.20;;;12.50;99.90;;;;;;4908841;29;20059;-86
2022/11/02 15:17:39;;;;;;;10.95;1.50;;;12.40;99.90;;;;;;4892680;29;20063;-85
2022/11/02 15:20:10;;;;;;;15.88;1.98;;;12.40;99.90;;;;;;4908790;29;20139;-85
2022/11/02 15:22:46;;;;;;;9.45;2.00;;;12.30;99.90;;;;;;4893739;29;20048;-85
2022/11/02 15:25:35;;;;;;;17.92;2.17;;;12.30;99.90;;;;;;4893795;29;20068;-84
2022/11/02 15:28:19;;;;;;;14.02;2.05;;;12.30;99.90;;;;;;4892536;29;20076;-85
2022/11/02 15:30:49;;;;;;;15.32;1.95;;;12.10;99.90;;;;;;4909242;29;20063;-86
2022/11/02 15:33:31;;;;;;;;;;;;;;;;;;;;;
2022/11/02 15:36:21;;;;;;;12.88;1.70;;;12.10;99.90;;;;;;4925745;29;20056;-87
2022/11/02 15:38:49;;;;;;;16.45;2.10;;;12.10;99.90;;;;;;4894131;29;20167;-86
2022/11/02 15:41:37;;;;;;;12.90;1.90;;;12.00;99.90;;;;;;4893451;29;20400;-86
2022/11/02 15:44:22;;;;;;;14.75;1.70;;;12.00;99.90;;;;;;4909262;29;20401;-86
2022/11/02 15:47:07;;;;;;;15.85;2.00;;;11.90;99.90;;;;;;4893851;29;20582;-86
2022/11/02 15:50:05;;;;;;;14.05;2.08;;;11.80;99.90;;;;;;4908256;29;20059;-86
2022/11/02 15:52:55;;;;;;;18.83;1.70;;;11.80;99.90;;;;;;4908028;29;20056;-86
2022/11/02 15:55:32;;;;;;;13.75;1.90;;;11.80;99.90;;;;;;4868356;29;20100;-85
2022/11/02 15:58:36;;;;;;;14.55;1.95;;;11.70;99.90;;;;;;4877916;29;20498;-84
2022/11/02 16:01:04;;;;;;;14.38;1.60;;;11.70;99.90;;;;;;4872208;29;20082;-87
2022/11/02 16:03:31;;;;;;;8.77;1.80;;;11.70;99.90;;;;;;4856475;29;20124;-85
2022/11/02 16:06:35;;;;;;;;;;;;;;;;;;;;;
2022/11/02 16:09:32;;;;;;;16.65;2.60;;;11.60;99.90;;;;;;4854401;29;20067;-84
2022/11/02 16:12:07;;;;;;;7.88;1.65;;;11.50;99.90;;;;;;4871936;29;20532;-84
2022/11/02 16:14:33;;;;;;;17.17;2.60;;;11.50;99.90;;;;;;4855854;29;20132;-84
2022/11/02 16:16:59;;;;;;;11.02;1.73;;;11.50;99.90;;;;;;4855678;29;20203;-84
2022/11/02 16:19:34;;;;;;;13.27;2.22;;;11.40;99.90;;;;;;4840638;29;20053;-84
2022/11/02 16:22:00;;;;;;;15.50;2.50;;;11.70;99.90;;;;;;4871914;29;20060;-85
2022/11/02 16:24:25;;;;;;;11.77;2.15;;;11.40;99.90;;;;;;4855144;29;20053;-85
2022/11/02 16:26:52;;;;;;;13.45;2.80;;;11.40;99.90;;;;;;4856754;29;20120;-86
2022/11/02 16:32:40;;;;;;;13.80;2.83;;;11.40;99.90;;;;;;4839245;29;20140;-87
2022/11/02 16:35:20;;;;;;;;;;;;;;;;;;;;;
2022/11/02 16:38:00;;;;;;;14.00;2.53;;;11.30;99.90;;;;;;4886872;29;20064;-87
2022/11/02 16:40:27;;;;;;;19.50;2.47;;;11.60;99.90;;;;;;4872328;29;20049;-86
2022/11/02 16:42:58;;;;;;;15.35;2.22;;;11.20;99.90;;;;;;4855785;29;20045;-86
2022/11/02 16:45:33;;;;;;;11.38;1.95;;;11.20;99.90;;;;;;4871600;29;20064;-87
2022/11/02 16:47:59;;;;;;;15.98;3.15;;;11.20;99.90;;;;;;4870769;29;20041;-87
2022/11/02 16:50:29;;;;;;;13.10;3.28;;;11.20;99.90;;;;;;4871719;29;20051;-86
2022/11/02 16:52:57;;;;;;;14.27;2.13;;;11.10;99.90;;;;;;4872118;29;20045;-87
2022/11/02 16:59:33;;;;;;;14.15;2.63;;;11.00;99.90;;;;;;4888035;29;20072;-87
2022/11/02 17:01:59;;;;;;;13.68;2.20;;;10.90;99.90;;;;;;4918811;29;20060;-86
2022/11/02 17:05:00;;;;;;;;;;;;;;;;;;;;;
2022/11/02 17:08:07;;;;;;;;;;;;;;;;;;;;;
2022/11/02 17:10:52;;;;;;;16.70;2.60;;;10.80;99.90;;;;;;4889027;29;20048;-85
2022/11/02 17:13:22;;;;;;;18.70;2.70;;;10.80;99.90;;;;;;4888991;29;20063;-86
2022/11/02 17:15:52;;;;;;;12.35;2.50;;;10.70;99.90;;;;;;4905306;29;20057;-86
2022/11/02 17:18:21;;;;;;;11.45;2.22;;;10.70;99.90;;;;;;4920327;29;20048;-86
2022/11/02 17:20:47;;;;;;;17.02;2.20;;;10.70;99.90;;;;;;4888213;29;20488;-86
2022/11/02 17:23:50;;;;;;;16.00;2.78;;;11.60;99.90;;;;;;4921261;29;20280;-86
2022/11/02 17:27:18;;;;;;;;;;;;;;;;;;;;;
2022/11/02 17:29:53;;;;;;;14.18;2.85;;;10.70;99.90;;;;;;4872243;29;20109;-86
2022/11/02 17:32:25;;;;;;;18.30;2.10;;;10.60;99.90;;;;;;4905582;29;20074;-85
2022/11/02 17:34:54;;;;;;;14.75;2.05;;;10.60;99.90;;;;;;4889078;29;20083;-85
2022/11/02 17:37:33;;;;;;;11.80;1.85;;;10.30;99.90;;;;;;4905497;29;20048;-85
2022/11/02 17:40:05;;;;;;;12.43;2.03;;;10.60;99.90;;;;;;4873620;29;20458;-85
2022/11/02 17:45:43;;;;;;;13.15;2.08;;;10.60;99.90;;;;;;4905314;29;20127;-86
2022/11/02 17:48:12;;;;;;;10.25;1.80;;;10.50;99.90;;;;;;4887123;29;20425;-85
2022/11/02 17:51:00;;;;;;;17.60;2.50;;;11.00;99.90;;;;;;4874017;29;20045;-85
2022/11/02 17:53:42;;;;;;;12.93;1.98;;;10.30;99.90;;;;;;4874167;29;20158;-85
2022/11/02 17:56:44;;;;;;;17.13;2.35;;;10.40;99.90;;;;;;4873189;29;20061;-86
2022/11/02 17:59:13;;;;;;;13.65;2.22;;;11.30;99.90;;;;;;4856020;29;20075;-86
2022/11/02 18:01:39;;;;;;;11.57;2.38;;;11.00;99.90;;;;;;4884979;29;20493;-85
2022/11/02 18:04:08;;;;;;;16.02;2.38;;;10.30;99.90;;;;;;4885874;29;20057;-85
2022/11/02 18:06:34;;;;;;;15.70;2.40;;;10.30;99.90;;;;;;4894586;29;20051;-86
2022/11/02 18:09:09;;;;;;;16.25;2.10;;;10.50;99.90;;;;;;4886877;29;20052;-85
2022/11/02 18:11:40;;;;;;;10.63;1.98;;;10.30;99.90;;;;;;4872957;29;20053;-85
2022/11/02 18:14:12;;;;;;;15.35;2.15;;;10.20;99.90;;;;;;4888849;29;20134;-85
2022/11/02 18:16:58;;;;;;;10.43;2.10;;;10.30;99.90;;;;;;4872120;29;20365;-85
2022/11/02 18:19:24;;;;;;;17.05;2.20;;;10.20;99.90;;;;;;4887610;29;20048;-85
2022/11/02 18:21:56;;;;;;;12.30;1.92;;;10.20;99.90;;;;;;4873169;29;20056;-85
2022/11/02 18:24:21;;;;;;;14.27;2.25;;;10.20;99.90;;;;;;4888560;29;20123;-85
2022/11/02 18:26:47;;;;;;;20.67;2.08;;;10.30;99.90;;;;;;4873825;29;20567;-87
2022/11/02 18:29:25;;;;;;;12.52;2.13;;;10.30;99.90;;;;;;4873356;29;20053;-87
2022/11/02 18:31:50;;;;;;;14.20;2.60;;;10.20;99.90;;;;;;4870621;29;20568;-84
2022/11/02 18:34:16;;;;;;;15.80;2.00;;;10.30;99.90;;;;;;4873624;29;20041;-85
2022/11/02 18:36:43;;;;;;;16.50;2.45;;;10.30;99.90;;;;;;4875587;29;20148;-84
2022/11/02 18:39:08;;;;;;;14.20;2.00;;;11.20;99.90;;;;;;4892139;29;20055;-84
2022/11/02 18:41:35;;;;;;;18.02;2.50;;;10.30;99.90;;;;;;4877044;29;20135;-84
2022/11/02 18:44:04;;;;;;;15.73;2.03;;;10.30;99.90;;;;;;4890498;29;20517;-84
2022/11/02 18:46:31;;;;;;;22.95;2.28;;;10.30;99.90;;;;;;4875702;29;20048;-85
2022/11/02 18:48:57;;;;;;;17.08;2.33;;;10.30;99.90;;;;;;4890639;29;20533;-84
2022/11/02 18:51:28;;;;;;;13.80;2.63;;;10.30;99.90;;;;;;4891773;29;20048;-84
2022/11/02 18:54:06;;;;;;;12.23;2.08;;;10.30;99.90;;;;;;4890744;29;20135;-85
2022/11/02 18:56:34;;;;;;;17.92;2.47;;;10.40;99.90;;;;;;4876882;29;20052;-85
2022/11/02 18:59:00;;;;;;;21.88;3.10;;;10.40;99.90;;;;;;4890577;29;20052;-84
2022/11/02 19:01:26;;;;;;;13.82;2.08;;;10.40;99.90;;;;;;4892051;29;20522;-84
2022/11/02 19:03:56;;;;;;;18.77;3.20;;;10.40;99.90;;;;;;4890612;29;20057;-84
2022/11/02 19:09:43;;;;;;;14.35;2.30;;;10.50;99.90;;;;;;4889012;29;20060;-84
2022/11/02 19:12:15;;;;;;;13.73;2.10;;;10.50;99.90;;;;;;4875219;29;20052;-85
2022/11/02 19:14:43;;;;;;;17.83;2.70;;;10.50;99.90;;;;;;4890716;29;20044;-84
2022/11/02 19:17:15;;;;;;;16.73;3.05;;;10.50;99.90;;;;;;4891868;29;20040;-85
2022/11/02 19:19:45;;;;;;;17.55;2.33;;;10.50;99.90;;;;;;4889573;29;20043;-84
2022/11/02 19:22:16;;;;;;;12.93;2.70;;;10.50;99.90;;;;;;4888824;29;20135;-84
2022/11/02 19:24:50;;;;;;;16.85;2.65;;;10.50;99.90;;;;;;4890887;29;20147;-84
2022/11/02 19:27:25;;;;;;;16.83;2.58;;;10.50;99.90;;;;;;4888657;29;20040;-85
2022/11/02 19:29:51;;;;;;;15.88;2.60;;;10.50;99.90;;;;;;4870888;29;20045;-85
2022/11/02 19:32:18;;;;;;;16.27;2.90;;;10.50;99.90;;;;;;4890710;29;20099;-85
2022/11/02 19:34:44;;;;;;;19.55;2.50;;;10.40;99.90;;;;;;4889491;29;20076;-84
2022/11/02 19:37:10;;;;;;;15.40;2.85;;;10.40;99.90;;;;;;4890466;29;20132;-85
2022/11/02 19:39:44;;;;;;;13.93;2.10;;;10.50;99.90;;;;;;4890186;29;20107;-85
2022/11/02 19:42:10;;;;;;;11.35;2.47;;;10.50;99.90;;;;;;4875228;29;20449;-84
2022/11/02 19:44:38;;;;;;;13.75;2.40;;;10.50;99.90;;;;;;4874868;29;20060;-85
2022/11/02 19:47:04;;;;;;;16.10;3.17;;;10.50;99.90;;;;;;4889578;29;20092;-85
2022/11/02 19:49:37;;;;;;;15.32;2.40;;;10.50;99.90;;;;;;4889647;29;20044;-85
2022/11/02 19:52:05;;;;;;;;;;;10.50;99.90;;;;;;4874654;29;20440;-83
2022/11/02 19:54:31;;;;;;;16.15;2.10;;;10.50;99.90;;;;;;4918089;29;19967;-83
2022/11/02 19:57:12;;;;;;;15.13;2.88;;;10.50;99.90;;;;;;4889463;29;20139;-84
2022/11/02 19:59:38;;;;;;;17.15;3.72;;;10.50;99.90;;;;;;4906215;29;20162;-84
2022/11/02 20:02:08;;;;;;;13.70;2.40;;;10.50;99.90;;;;;;4890343;29;20074;-84
2022/11/02 20:04:50;;;;;;;16.45;2.53;;;10.50;99.90;;;;;;4905965;29;20061;-84
2022/11/02 20:07:19;;;;;;;12.63;2.40;;;10.50;99.90;;;;;;4906821;29;20054;-85
2022/11/02 20:10:02;;;;;;;13.93;2.33;;;10.50;99.90;;;;;;4905751;29;20048;-85
2022/11/02 20:13:12;;;;;;;17.05;2.75;;;10.30;99.90;;;;;;4890668;29;20044;-86
2022/11/02 20:15:54;;;;;;;13.07;2.40;;;10.40;99.90;;;;;;4869227;29;20052;-85
2022/11/02 20:21:43;;;;;;;13.30;2.35;;;10.50;99.90;;;;;;4869523;29;20057;-86
2022/11/02 20:24:12;;;;;;;17.75;2.88;;;10.50;99.90;;;;;;4856094;29;20107;-86
2022/11/02 20:26:40;;;;;;;13.50;2.33;;;10.50;99.90;;;;;;4888385;29;20148;-86
2022/11/02 20:29:06;;;;;;;14.45;2.35;;;10.60;99.90;;;;;;4874812;29;20059;-86
2022/11/02 20:31:43;;;;;;;12.35;2.30;;;10.60;99.90;;;;;;4873131;29;20052;-86
2022/11/02 20:34:32;;;;;;;18.88;2.63;;;10.30;99.90;;;;;;4874084;29;20131;-87
2022/11/02 20:37:06;;;;;;;12.10;2.10;;;10.60;99.90;;;;;;4873907;29;20044;-86
2022/11/02 20:39:32;;;;;;;14.18;2.13;;;10.30;99.90;;;;;;4890211;29;20136;-86
2022/11/02 20:42:09;;;;;;;12.88;1.95;;;10.60;99.90;;;;;;4889438;29;20056;-85
2022/11/02 20:44:56;;;;;;;15.27;2.60;;;10.60;99.90;;;;;;4872881;29;20418;-86
2022/11/02 20:47:24;;;;;;;13.82;2.72;;;10.50;99.90;;;;;;4872834;29;20059;-85
2022/11/02 20:50:10;;;;;;;18.88;2.75;;;10.70;99.90;;;;;;4890190;29;20040;-86
2022/11/02 20:52:58;;;;;;;16.35;2.72;;;10.70;99.90;;;;;;4890322;29;20048;-86
2022/11/02 20:55:27;;;;;;;9.95;1.95;;;10.60;99.90;;;;;;4859497;29;20052;-86
2022/11/02 20:57:55;;;;;;;12.43;1.85;;;10.80;99.90;;;;;;4872344;29;20061;-86
2022/11/02 21:00:24;;;;;;;15.88;2.40;;;10.70;99.90;;;;;;4889956;29;20131;-86
2022/11/02 21:02:53;;;;;;;16.02;2.78;;;10.70;99.90;;;;;;4873222;29;20052;-86
2022/11/02 21:05:19;;;;;;;11.98;1.90;;;10.90;99.90;;;;;;4874019;29;20049;-86
2022/11/02 21:07:55;;;;;;;;;;;;;;;;;;;;;
2022/11/02 21:16:10;;;;;;;18.67;2.65;;;10.70;99.90;;;;;;4886211;29;20128;-85
2022/11/02 21:18:37;;;;;;;12.48;2.15;;;10.60;99.90;;;;;;4887468;29;20052;-85
2022/11/02 21:21:05;;;;;;;16.48;3.05;;;10.70;99.90;;;;;;4888490;29;20052;-85
2022/11/02 21:23:54;;;;;;;13.30;2.42;;;10.70;99.90;;;;;;4889266;29;20115;-87
2022/11/02 21:27:00;;;;;;;18.33;2.08;;;10.20;99.90;;;;;;4922985;29;20471;-87
2022/11/02 21:29:44;;;;;;;15.85;2.35;;;10.60;99.90;;;;;;4910796;29;20089;-87
2022/11/02 21:32:18;;;;;;;15.02;2.53;;;11.00;99.90;;;;;;4907584;29;20493;-86
2022/11/02 21:34:58;;;;;;;14.38;2.55;;;10.70;99.90;;;;;;4908981;29;20079;-86
2022/11/02 21:37:44;;;;;;;10.55;2.03;;;11.00;99.90;;;;;;4907607;29;20123;-87
2022/11/02 21:40:11;;;;;;;21.15;2.30;;;10.70;99.90;;;;;;4922919;29;20186;-86
2022/11/02 21:43:28;;;;;;;11.90;2.28;;;10.70;99.90;;;;;;4896831;23;20067;-85
2022/11/02 21:46:01;;;;;;;12.30;2.63;;;10.60;99.90;;;;;;4857826;29;20059;-86
2022/11/02 21:48:32;;;;;;;14.35;2.08;;;10.70;99.90;;;;;;4856256;29;20494;-85
2022/11/02 21:51:22;;;;;;;;;;;;;;;;;;;;;
2022/11/02 21:53:56;;;;;;;11.63;2.35;;;10.70;99.90;;;;;;4871874;29;20048;-86
2022/11/02 21:56:30;;;;;;;16.73;2.15;;;10.70;99.90;;;;;;4857437;29;20139;-85
2022/11/02 21:59:16;;;;;;;17.55;2.65;;;10.70;99.90;;;;;;4840242;29;20090;-85
2022/11/02 22:01:43;;;;;;;13.73;2.50;;;10.70;99.90;;;;;;4837863;29;20062;-85
2022/11/02 22:04:23;;;;;;;;;;;;;;;;;;;;;
2022/11/02 22:06:59;;;;;;;13.95;2.60;;;10.70;99.90;;;;;;4854989;29;20053;-86
2022/11/02 22:09:39;;;;;;;10.02;2.10;;;10.70;99.90;;;;;;4854934;29;20042;-86
2022/11/02 22:14:52;;;;;;;14.48;2.70;;;10.70;99.90;;;;;;4856703;29;20057;-85
2022/11/02 22:17:17;;;;;;;12.68;2.17;;;10.70;99.90;;;;;;4873089;29;20088;-85
2022/11/02 22:20:00;;;;;;;12.90;2.10;;;10.60;99.90;;;;;;4872240;29;20107;-86
2022/11/02 22:22:29;;;;;;;13.80;2.42;;;10.60;99.90;;;;;;4857234;29;20050;-86
2022/11/02 22:24:54;;;;;;;18.80;2.33;;;10.60;99.90;;;;;;4889137;29;20055;-86
2022/11/02 22:27:22;;;;;;;14.93;2.30;;;10.60;99.90;;;;;;4888380;29;20132;-86
2022/11/02 22:29:51;;;;;;;22.70;2.60;;;10.60;99.90;;;;;;4841360;29;20097;-85
2022/11/02 22:32:40;;;;;;;13.02;1.98;;;10.50;99.90;;;;;;4856767;29;20561;-86
2022/11/02 22:35:06;;;;;;;14.13;2.00;;;10.50;99.90;;;;;;4858301;29;20049;-86
2022/11/02 22:40:27;;;;;;;13.20;2.38;;;10.50;99.90;;;;;;4857841;29;20129;-85
2022/11/02 22:42:54;;;;;;;16.02;3.15;;;10.90;99.90;;;;;;4840863;29;20045;-85
2022/11/02 22:45:22;;;;;;;14.80;2.67;;;10.50;99.90;;;;;;4888914;29;20057;-86
2022/11/02 22:47:48;;;;;;;18.30;3.25;;;10.50;99.90;;;;;;4890142;29;20160;-85
2022/11/02 22:50:14;;;;;;;15.52;2.70;;;10.50;99.90;;;;;;4890829;29;20211;-85
2022/11/02 22:52:46;;;;;;;18.05;2.72;;;10.50;99.90;;;;;;4891656;29;20056;-85
2022/11/02 22:55:30;;;;;;;14.48;2.10;;;10.40;99.90;;;;;;4891887;29;20033;-86
2022/11/02 22:57:56;;;;;;;11.48;2.55;;;10.50;99.90;;;;;;4890257;29;20045;-85
2022/11/02 23:00:39;;;;;;;;;;;;;;;;;;;;;
2022/11/02 23:03:26;;;;;;;12.02;2.65;;;10.20;99.90;;;;;;4906937;29;20045;-86
2022/11/02 23:05:52;;;;;;;17.80;2.33;;;10.40;99.90;;;;;;4874789;29;20197;-86
2022/11/02 23:08:18;;;;;;;12.23;2.65;;;10.40;99.90;;;;;;4890674;29;20123;-86
2022/11/02 23:13:48;;;;;;;14.07;2.45;;;9.80;99.90;;;;;;4906022;29;20061;-86
2022/11/02 23:16:22;;;;;;;17.70;3.30;;;10.30;99.90;;;;;;4891805;29;20053;-86
2022/11/02 23:25:18;;;;;;;16.02;2.58;;;10.40;99.90;;;;;;4906079;29;20115;-85
2022/11/02 23:33:40;;;;;;;16.85;2.75;;;10.40;99.90;;;;;;4854719;29;20494;-86
2022/11/02 23:36:11;;;;;;;11.57;2.40;;;10.40;99.90;;;;;;4856634;29;20041;-85
2022/11/02 23:41:33;;;;;;;14.70;2.78;;;10.30;99.90;;;;;;4856336;29;20064;-86
2022/11/02 23:47:00;;;;;;;18.35;3.10;;;10.30;99.90;;;;;;4838673;29;20458;-85
2022/11/02 23:49:38;;;;;;;15.55;2.72;;;10.50;99.90;;;;;;4855832;29;20048;-85
2022/11/02 23:57:53;;;;;;;19.45;2.92;;;10.30;99.90;;;;;;4862858;29;20056;-85
